sensor_id;sensor_type;location;lat;lon;timestamp;pressure;altitude;pressure_sealevel;temperature;humidity
64404;BME280;50726;54.912;-8.392;2022-12-31T00:00:12;98239.75;;;25.60;36.13
64404;BME280;50726;54.912;-8.392;2022-12-31T00:02:38;98239.53;;;24.73;37.39
64404;BME280;50726;54.912;-8.392;2022-12-31T00:05:04;98231.09;;;25.21;37.15
64404;BME280;50726;54.912;-8.392;2022-12-31T00:07:34;98219.13;;;25.76;36.71
64404;BME280;50726;54.912;-8.392;2022-12-31T00:10:01;98239.13;;;26.59;35.64
64404;BME280;50726;54.912;-8.392;2022-12-31T00:12:26;98225.66;;;26.45;35.19
64404;BME280;50726;54.912;-8.392;2022-12-31T00:14:54;98229.44;;;27.96;34.15
64404;BME280;50726;54.912;-8.392;2022-12-31T00:17:20;98230.28;;;27.90;33.49
64404;BME280;50726;54.912;-8.392;2022-12-31T00:19:46;98230.03;;;26.95;35.62
64404;BME280;50726;54.912;-8.392;2022-12-31T00:22:12;98257.47;;;27.46;36.00
64404;BME280;50726;54.912;-8.392;2022-12-31T00:24:37;98235.00;;;29.21;33.44
64404;BME280;50726;54.912;-8.392;2022-12-31T00:27:03;98239.22;;;29.49;34.23
64404;BME280;50726;54.912;-8.392;2022-12-31T00:29:29;98238.13;;;27.91;35.86
64404;BME280;50726;54.912;-8.392;2022-12-31T00:31:55;98236.97;;;28.80;35.41
64404;BME280;50726;54.912;-8.392;2022-12-31T00:34:20;98230.75;;;28.93;35.22
64404;BME280;50726;54.912;-8.392;2022-12-31T00:36:46;98240.53;;;28.87;35.11
64404;BME280;50726;54.912;-8.392;2022-12-31T00:39:12;98234.78;;;29.87;34.88
64404;BME280;50726;54.912;-8.392;2022-12-31T00:41:38;98245.88;;;31.42;33.27
64404;BME280;50726;54.912;-8.392;2022-12-31T00:44:04;98260.25;;;29.91;34.04
64404;BME280;50726;54.912;-8.392;2022-12-31T00:46:29;98257.13;;;27.76;37.26
64404;BME280;50726;54.912;-8.392;2022-12-31T00:48:56;98257.31;;;26.35;38.80
64404;BME280;50726;54.912;-8.392;2022-12-31T00:51:25;98303.34;;;26.74;38.21
64404;BME280;50726;54.912;-8.392;2022-12-31T00:53:55;98285.41;;;25.95;39.66
64404;BME280;50726;54.912;-8.392;2022-12-31T00:56:23;98288.38;;;25.64;40.77
64404;BME280;50726;54.912;-8.392;2022-12-31T00:58:50;98276.81;;;25.41;41.11
64404;BME280;50726;54.912;-8.392;2022-12-31T01:01:17;98295.78;;;24.94;40.96
64404;BME280;50726;54.912;-8.392;2022-12-31T01:03:46;98278.59;;;25.34;41.71
64404;BME280;50726;54.912;-8.392;2022-12-31T01:06:13;98294.81;;;26.63;38.77
64404;BME280;50726;54.912;-8.392;2022-12-31T01:08:39;98275.84;;;25.64;39.52
64404;BME280;50726;54.912;-8.392;2022-12-31T01:11:05;98301.97;;;24.95;42.27
64404;BME280;50726;54.912;-8.392;2022-12-31T01:13:53;98283.91;;;24.82;41.49
64404;BME280;50726;54.912;-8.392;2022-12-31T01:16:37;98304.41;;;26.00;40.58
64404;BME280;50726;54.912;-8.392;2022-12-31T01:19:06;98278.66;;;25.99;41.08
64404;BME280;50726;54.912;-8.392;2022-12-31T01:21:33;98289.06;;;24.84;42.06
64404;BME280;50726;54.912;-8.392;2022-12-31T01:24:00;98288.97;;;25.59;41.06
64404;BME280;50726;54.912;-8.392;2022-12-31T01:26:27;98311.63;;;26.79;40.28
64404;BME280;50726;54.912;-8.392;2022-12-31T01:28:55;98301.78;;;25.85;39.94
64404;BME280;50726;54.912;-8.392;2022-12-31T01:31:22;98296.56;;;26.49;39.38
64404;BME280;50726;54.912;-8.392;2022-12-31T01:33:51;98310.69;;;28.11;37.99
64404;BME280;50726;54.912;-8.392;2022-12-31T01:36:23;98307.75;;;27.99;37.19
64404;BME280;50726;54.912;-8.392;2022-12-31T01:38:55;98311.78;;;26.99;38.87
64404;BME280;50726;54.912;-8.392;2022-12-31T01:41:37;98318.09;;;29.43;36.42
64404;BME280;50726;54.912;-8.392;2022-12-31T01:46:38;98334.50;;;28.41;36.13
64404;BME280;50726;54.912;-8.392;2022-12-31T01:49:09;98332.19;;;29.45;35.53
64404;BME280;50726;54.912;-8.392;2022-12-31T01:51:39;98321.19;;;28.80;36.53
64404;BME280;50726;54.912;-8.392;2022-12-31T01:54:11;98330.53;;;28.64;36.27
64404;BME280;50726;54.912;-8.392;2022-12-31T01:56:38;98314.19;;;25.19;39.91
64404;BME280;50726;54.912;-8.392;2022-12-31T01:59:09;98337.19;;;24.60;43.33
64404;BME280;50726;54.912;-8.392;2022-12-31T02:01:38;98303.16;;;24.92;42.13
64404;BME280;50726;54.912;-8.392;2022-12-31T02:04:09;98301.72;;;25.79;42.03
64404;BME280;50726;54.912;-8.392;2022-12-31T02:06:45;98321.13;;;25.14;42.94
64404;BME280;50726;54.912;-8.392;2022-12-31T02:09:13;98313.19;;;28.40;39.55
64404;BME280;50726;54.912;-8.392;2022-12-31T02:11:40;98305.53;;;28.30;37.15
64404;BME280;50726;54.912;-8.392;2022-12-31T02:14:14;98298.44;;;27.75;38.24
64404;BME280;50726;54.912;-8.392;2022-12-31T02:16:58;98311.06;;;26.90;37.70
64404;BME280;50726;54.912;-8.392;2022-12-31T02:31:57;98302.75;;;25.99;38.77
64404;BME280;50726;54.912;-8.392;2022-12-31T02:34:37;98303.66;;;24.73;40.87
64404;BME280;50726;54.912;-8.392;2022-12-31T02:37:09;98312.81;;;24.78;41.98
64404;BME280;50726;54.912;-8.392;2022-12-31T02:39:40;98291.44;;;24.78;42.85
64404;BME280;50726;54.912;-8.392;2022-12-31T02:42:09;98303.34;;;25.06;42.34
64404;BME280;50726;54.912;-8.392;2022-12-31T03:31:09;98307.88;;;27.08;38.81
64404;BME280;50726;54.912;-8.392;2022-12-31T03:33:37;98309.22;;;28.02;39.08
64404;BME280;50726;54.912;-8.392;2022-12-31T03:36:12;98303.50;;;26.65;39.52
64404;BME280;50726;54.912;-8.392;2022-12-31T03:38:38;98321.94;;;27.11;38.81
64404;BME280;50726;54.912;-8.392;2022-12-31T03:41:04;98312.97;;;26.61;39.22
64404;BME280;50726;54.912;-8.392;2022-12-31T03:43:33;98321.47;;;27.49;39.56
64404;BME280;50726;54.912;-8.392;2022-12-31T03:45:58;98312.31;;;27.99;37.49
64404;BME280;50726;54.912;-8.392;2022-12-31T03:48:24;98323.91;;;27.37;38.55
64404;BME280;50726;54.912;-8.392;2022-12-31T03:50:50;98320.78;;;27.82;38.54
64404;BME280;50726;54.912;-8.392;2022-12-31T03:53:16;98329.94;;;28.35;38.60
64404;BME280;50726;54.912;-8.392;2022-12-31T03:55:52;98320.91;;;29.68;36.11
64404;BME280;50726;54.912;-8.392;2022-12-31T03:58:17;98315.81;;;29.01;35.71
64404;BME280;50726;54.912;-8.392;2022-12-31T04:00:43;98310.25;;;29.48;35.96
64404;BME280;50726;54.912;-8.392;2022-12-31T04:03:09;98317.47;;;27.94;36.31
64404;BME280;50726;54.912;-8.392;2022-12-31T04:05:35;98321.22;;;28.60;35.69
64404;BME280;50726;54.912;-8.392;2022-12-31T04:08:00;98322.66;;;28.83;34.89
64404;BME280;50726;54.912;-8.392;2022-12-31T04:10:27;98305.44;;;29.11;36.91
64404;BME280;50726;54.912;-8.392;2022-12-31T04:12:53;98323.72;;;29.41;35.39
64404;BME280;50726;54.912;-8.392;2022-12-31T04:15:24;98329.72;;;28.23;35.58
64404;BME280;50726;54.912;-8.392;2022-12-31T04:17:50;98314.47;;;27.55;37.17
64404;BME280;50726;54.912;-8.392;2022-12-31T04:20:16;98333.94;;;27.21;37.29
64404;BME280;50726;54.912;-8.392;2022-12-31T04:22:42;98328.25;;;28.07;37.69
64404;BME280;50726;54.912;-8.392;2022-12-31T04:25:08;98335.72;;;26.44;39.46
64404;BME280;50726;54.912;-8.392;2022-12-31T04:27:39;98342.31;;;26.98;39.16
64404;BME280;50726;54.912;-8.392;2022-12-31T04:30:06;98337.25;;;26.88;39.77
64404;BME280;50726;54.912;-8.392;2022-12-31T04:32:32;98345.00;;;27.47;38.08
64404;BME280;50726;54.912;-8.392;2022-12-31T04:34:58;98326.84;;;26.72;39.56
64404;BME280;50726;54.912;-8.392;2022-12-31T04:37:26;98344.97;;;27.33;38.17
64404;BME280;50726;54.912;-8.392;2022-12-31T04:39:51;98333.28;;;27.55;38.17
64404;BME280;50726;54.912;-8.392;2022-12-31T04:42:17;98340.66;;;28.01;37.69
64404;BME280;50726;54.912;-8.392;2022-12-31T04:44:43;98334.81;;;29.65;36.75
64404;BME280;50726;54.912;-8.392;2022-12-31T04:47:09;98326.63;;;30.43;35.43
64404;BME280;50726;54.912;-8.392;2022-12-31T04:49:38;98333.84;;;29.46;35.78
64404;BME280;50726;54.912;-8.392;2022-12-31T04:52:04;98340.59;;;29.16;36.31
64404;BME280;50726;54.912;-8.392;2022-12-31T04:54:31;98342.41;;;29.82;35.05
64404;BME280;50726;54.912;-8.392;2022-12-31T04:56:57;98337.56;;;28.65;37.32
64404;BME280;50726;54.912;-8.392;2022-12-31T04:59:22;98337.00;;;29.36;35.46
64404;BME280;50726;54.912;-8.392;2022-12-31T05:01:48;98337.22;;;29.28;34.94
64404;BME280;50726;54.912;-8.392;2022-12-31T05:04:14;98354.91;;;30.34;35.21
64404;BME280;50726;54.912;-8.392;2022-12-31T05:06:40;98338.72;;;29.10;33.25
64404;BME280;50726;54.912;-8.392;2022-12-31T05:09:05;98330.16;;;29.40;34.87
64404;BME280;50726;54.912;-8.392;2022-12-31T05:11:31;98318.53;;;29.46;35.88
64404;BME280;50726;54.912;-8.392;2022-12-31T05:13:57;98339.06;;;29.80;35.49
64404;BME280;50726;54.912;-8.392;2022-12-31T05:16:23;98343.28;;;29.76;34.92
64404;BME280;50726;54.912;-8.392;2022-12-31T05:18:49;98346.00;;;29.10;34.03
64404;BME280;50726;54.912;-8.392;2022-12-31T05:21:18;98336.28;;;29.61;34.19
64404;BME280;50726;54.912;-8.392;2022-12-31T05:23:46;98341.41;;;29.10;34.20
64404;BME280;50726;54.912;-8.392;2022-12-31T05:26:12;98342.31;;;30.78;33.32
64404;BME280;50726;54.912;-8.392;2022-12-31T05:28:38;98370.94;;;30.79;34.30
64404;BME280;50726;54.912;-8.392;2022-12-31T05:31:04;98362.44;;;30.25;33.11
64404;BME280;50726;54.912;-8.392;2022-12-31T05:33:29;98344.41;;;28.68;35.04
64404;BME280;50726;54.912;-8.392;2022-12-31T05:35:55;98348.28;;;29.97;33.60
64404;BME280;50726;54.912;-8.392;2022-12-31T05:38:24;98362.72;;;29.78;33.74
64404;BME280;50726;54.912;-8.392;2022-12-31T05:41:01;98366.88;;;29.73;33.04
64404;BME280;50726;54.912;-8.392;2022-12-31T05:43:27;98365.75;;;25.13;39.30
64404;BME280;50726;54.912;-8.392;2022-12-31T05:45:54;98366.84;;;23.80;42.04
64404;BME280;50726;54.912;-8.392;2022-12-31T05:48:19;98365.00;;;24.36;42.52
64404;BME280;50726;54.912;-8.392;2022-12-31T05:50:45;98371.63;;;23.53;44.10
64404;BME280;50726;54.912;-8.392;2022-12-31T05:53:11;98357.31;;;24.56;42.92
64404;BME280;50726;54.912;-8.392;2022-12-31T05:55:36;98358.13;;;25.10;42.30
64404;BME280;50726;54.912;-8.392;2022-12-31T05:58:03;98360.59;;;25.57;42.38
64404;BME280;50726;54.912;-8.392;2022-12-31T06:00:29;98377.41;;;25.36;42.09
64404;BME280;50726;54.912;-8.392;2022-12-31T06:02:54;98387.84;;;25.82;41.98
64404;BME280;50726;54.912;-8.392;2022-12-31T06:05:20;98365.16;;;26.22;40.93
64404;BME280;50726;54.912;-8.392;2022-12-31T06:07:46;98372.91;;;27.11;39.83
64404;BME280;50726;54.912;-8.392;2022-12-31T06:10:12;98388.34;;;27.02;39.45
64404;BME280;50726;54.912;-8.392;2022-12-31T06:12:38;98371.00;;;27.40;39.17
64404;BME280;50726;54.912;-8.392;2022-12-31T06:15:04;98370.66;;;26.86;39.84
64404;BME280;50726;54.912;-8.392;2022-12-31T06:17:30;98397.47;;;26.35;40.29
64404;BME280;50726;54.912;-8.392;2022-12-31T06:19:57;98380.66;;;26.92;38.98
64404;BME280;50726;54.912;-8.392;2022-12-31T06:22:25;98398.22;;;26.73;38.75
64404;BME280;50726;54.912;-8.392;2022-12-31T06:24:51;98391.97;;;28.74;37.31
64404;BME280;50726;54.912;-8.392;2022-12-31T06:27:17;98410.53;;;28.22;37.87
64404;BME280;50726;54.912;-8.392;2022-12-31T06:29:43;98402.53;;;29.76;36.24
64404;BME280;50726;54.912;-8.392;2022-12-31T06:32:10;98424.16;;;28.13;38.80
64404;BME280;50726;54.912;-8.392;2022-12-31T06:34:37;98414.94;;;27.74;38.93
64404;BME280;50726;54.912;-8.392;2022-12-31T06:37:03;98396.88;;;28.17;38.43
64404;BME280;50726;54.912;-8.392;2022-12-31T06:39:29;98414.50;;;26.71;40.19
64404;BME280;50726;54.912;-8.392;2022-12-31T06:41:59;98423.34;;;27.22;40.66
64404;BME280;50726;54.912;-8.392;2022-12-31T06:44:24;98415.34;;;26.28;40.97
64404;BME280;50726;54.912;-8.392;2022-12-31T06:46:50;98400.94;;;26.14;40.57
64404;BME280;50726;54.912;-8.392;2022-12-31T06:49:20;98410.00;;;27.84;39.22
64404;BME280;50726;54.912;-8.392;2022-12-31T06:51:45;98420.97;;;27.41;39.52
64404;BME280;50726;54.912;-8.392;2022-12-31T06:54:13;98427.16;;;29.00;38.04
64404;BME280;50726;54.912;-8.392;2022-12-31T06:56:40;98425.16;;;27.99;38.76
64404;BME280;50726;54.912;-8.392;2022-12-31T06:59:28;98432.50;;;28.52;37.75
64404;BME280;50726;54.912;-8.392;2022-12-31T07:04:40;98439.19;;;30.22;36.04
64404;BME280;50726;54.912;-8.392;2022-12-31T07:07:29;98441.50;;;29.66;36.69
64404;BME280;50726;54.912;-8.392;2022-12-31T07:12:44;98431.91;;;29.84;36.38
64404;BME280;50726;54.912;-8.392;2022-12-31T07:15:20;98422.66;;;30.76;35.23
64404;BME280;50726;54.912;-8.392;2022-12-31T07:20:35;98441.50;;;29.66;34.30
64404;BME280;50726;54.912;-8.392;2022-12-31T07:23:01;98464.34;;;29.37;34.81
64404;BME280;50726;54.912;-8.392;2022-12-31T07:25:27;98432.47;;;29.40;34.95
64404;BME280;50726;54.912;-8.392;2022-12-31T07:31:12;98451.28;;;31.47;33.43
64404;BME280;50726;54.912;-8.392;2022-12-31T07:34:08;98460.41;;;32.02;33.57
64404;BME280;50726;54.912;-8.392;2022-12-31T07:37:08;98451.41;;;31.52;33.11
64404;BME280;50726;54.912;-8.392;2022-12-31T07:39:45;98477.13;;;31.55;33.63
64404;BME280;50726;54.912;-8.392;2022-12-31T07:42:26;98452.63;;;30.61;34.14
64404;BME280;50726;54.912;-8.392;2022-12-31T07:45:02;98475.69;;;30.57;35.01
64404;BME280;50726;54.912;-8.392;2022-12-31T07:47:29;98467.78;;;29.78;35.58
64404;BME280;50726;54.912;-8.392;2022-12-31T07:49:55;98459.72;;;30.55;35.00
64404;BME280;50726;54.912;-8.392;2022-12-31T07:52:22;98462.97;;;30.64;34.98
64404;BME280;50726;54.912;-8.392;2022-12-31T07:54:49;98470.94;;;31.54;34.58
64404;BME280;50726;54.912;-8.392;2022-12-31T07:57:17;98471.91;;;30.90;34.55
64404;BME280;50726;54.912;-8.392;2022-12-31T08:00:07;98463.22;;;30.88;34.89
64404;BME280;50726;54.912;-8.392;2022-12-31T08:08:45;98464.25;;;29.84;34.13
64404;BME280;50726;54.912;-8.392;2022-12-31T08:11:34;98488.97;;;30.20;35.52
64404;BME280;50726;54.912;-8.392;2022-12-31T08:14:08;98457.59;;;30.58;34.76
64404;BME280;50726;54.912;-8.392;2022-12-31T08:16:34;98473.00;;;31.08;34.59
64404;BME280;50726;54.912;-8.392;2022-12-31T08:19:00;98458.91;;;30.16;35.27
64404;BME280;50726;54.912;-8.392;2022-12-31T08:30:06;98506.47;;;29.97;35.48
64404;BME280;50726;54.912;-8.392;2022-12-31T08:32:42;98523.81;;;29.48;34.64
64404;BME280;50726;54.912;-8.392;2022-12-31T08:37:58;98522.69;;;30.36;35.32
64404;BME280;50726;54.912;-8.392;2022-12-31T08:40:49;98523.25;;;31.34;34.63
64404;BME280;50726;54.912;-8.392;2022-12-31T08:43:39;98530.91;;;30.09;34.29
64404;BME280;50726;54.912;-8.392;2022-12-31T08:46:18;98503.91;;;29.50;35.58
64404;BME280;50726;54.912;-8.392;2022-12-31T08:48:46;98490.25;;;30.10;35.77
64404;BME280;50726;54.912;-8.392;2022-12-31T08:51:21;98518.34;;;31.50;34.47
64404;BME280;50726;54.912;-8.392;2022-12-31T08:53:48;98529.06;;;31.13;33.21
64404;BME280;50726;54.912;-8.392;2022-12-31T08:56:29;98512.38;;;30.90;34.76
64404;BME280;50726;54.912;-8.392;2022-12-31T09:06:59;98521.78;;;30.88;33.80
64404;BME280;50726;54.912;-8.392;2022-12-31T09:12:08;98572.44;;;30.86;33.32
64404;BME280;50726;54.912;-8.392;2022-12-31T09:14:53;98550.72;;;30.99;32.38
64404;BME280;50726;54.912;-8.392;2022-12-31T09:24:42;98547.88;;;30.16;34.86
64404;BME280;50726;54.912;-8.392;2022-12-31T09:27:25;98559.50;;;30.55;34.51
64404;BME280;50726;54.912;-8.392;2022-12-31T09:35:13;98586.56;;;30.88;33.99
64404;BME280;50726;54.912;-8.392;2022-12-31T09:37:47;98600.50;;;31.61;34.10
64404;BME280;50726;54.912;-8.392;2022-12-31T09:49:01;98609.69;;;29.97;34.03
64404;BME280;50726;54.912;-8.392;2022-12-31T09:51:55;98589.66;;;30.85;34.70
64404;BME280;50726;54.912;-8.392;2022-12-31T10:07:25;98596.53;;;30.80;33.88
64404;BME280;50726;54.912;-8.392;2022-12-31T10:10:08;98617.19;;;29.82;35.57
64404;BME280;50726;54.912;-8.392;2022-12-31T10:16:19;98608.91;;;29.63;35.08
64404;BME280;50726;54.912;-8.392;2022-12-31T10:21:47;98625.78;;;31.16;34.65
64404;BME280;50726;54.912;-8.392;2022-12-31T10:30:00;98621.22;;;30.38;33.52
64404;BME280;50726;54.912;-8.392;2022-12-31T10:35:40;98626.47;;;31.87;33.61
64404;BME280;50726;54.912;-8.392;2022-12-31T10:38:44;98622.00;;;32.19;33.18
64404;BME280;50726;54.912;-8.392;2022-12-31T10:41:26;98630.41;;;32.29;33.36
64404;BME280;50726;54.912;-8.392;2022-12-31T10:44:35;98607.16;;;31.84;33.66
64404;BME280;50726;54.912;-8.392;2022-12-31T10:55:34;98653.03;;;29.62;33.61
64404;BME280;50726;54.912;-8.392;2022-12-31T11:15:16;98638.22;;;31.74;33.40
64404;BME280;50726;54.912;-8.392;2022-12-31T11:25:52;98636.63;;;31.67;33.93
64404;BME280;50726;54.912;-8.392;2022-12-31T11:31:25;98623.47;;;31.52;33.86
64404;BME280;50726;54.912;-8.392;2022-12-31T11:34:24;98620.41;;;31.92;33.27
64404;BME280;50726;54.912;-8.392;2022-12-31T11:51:30;98632.34;;;31.33;34.46
64404;BME280;50726;54.912;-8.392;2022-12-31T11:54:32;98632.63;;;32.70;33.65
64404;BME280;50726;54.912;-8.392;2022-12-31T12:12:40;98602.38;;;30.77;35.70
64404;BME280;50726;54.912;-8.392;2022-12-31T12:15:08;98603.88;;;30.14;35.93
64404;BME280;50726;54.912;-8.392;2022-12-31T12:17:35;98604.59;;;30.41;35.62
64404;BME280;50726;54.912;-8.392;2022-12-31T12:20:09;98604.03;;;30.78;35.63
64404;BME280;50726;54.912;-8.392;2022-12-31T12:22:51;98595.38;;;31.34;34.40
64404;BME280;50726;54.912;-8.392;2022-12-31T12:25:23;98602.75;;;28.18;36.68
64404;BME280;50726;54.912;-8.392;2022-12-31T12:27:50;98590.94;;;28.12;37.24
64404;BME280;50726;54.912;-8.392;2022-12-31T12:32:56;98582.59;;;30.45;35.67
64404;BME280;50726;54.912;-8.392;2022-12-31T12:35:28;98587.44;;;31.83;34.50
64404;BME280;50726;54.912;-8.392;2022-12-31T12:38:18;98586.50;;;31.20;33.41
64404;BME280;50726;54.912;-8.392;2022-12-31T12:41:08;98583.59;;;31.21;34.48
64404;BME280;50726;54.912;-8.392;2022-12-31T12:43:38;98583.44;;;29.25;35.85
64404;BME280;50726;54.912;-8.392;2022-12-31T12:46:29;98588.53;;;30.14;35.13
64404;BME280;50726;54.912;-8.392;2022-12-31T12:48:56;98574.72;;;30.43;35.40
64404;BME280;50726;54.912;-8.392;2022-12-31T12:56:53;98570.66;;;30.27;34.81
64404;BME280;50726;54.912;-8.392;2022-12-31T13:02:39;98585.31;;;29.58;35.58
64404;BME280;50726;54.912;-8.392;2022-12-31T13:05:39;98584.75;;;32.02;34.44
64404;BME280;50726;54.912;-8.392;2022-12-31T13:08:28;98565.25;;;31.56;34.29
64404;BME280;50726;54.912;-8.392;2022-12-31T13:13:59;98555.66;;;29.79;35.71
64404;BME280;50726;54.912;-8.392;2022-12-31T13:16:40;98557.91;;;28.80;35.91
64404;BME280;50726;54.912;-8.392;2022-12-31T13:22:10;98562.47;;;29.81;35.37
64404;BME280;50726;54.912;-8.392;2022-12-31T13:27:41;98561.72;;;30.72;33.49
64404;BME280;50726;54.912;-8.392;2022-12-31T13:30:35;98557.31;;;29.73;36.18
64404;BME280;50726;54.912;-8.392;2022-12-31T13:35:57;98561.25;;;29.03;35.13
64404;BME280;50726;54.912;-8.392;2022-12-31T13:44:22;98553.22;;;30.30;33.93
64404;BME280;50726;54.912;-8.392;2022-12-31T13:46:48;98574.09;;;29.82;34.51
64404;BME280;50726;54.912;-8.392;2022-12-31T13:49:17;98587.69;;;28.17;35.55
64404;BME280;50726;54.912;-8.392;2022-12-31T13:51:49;98576.81;;;29.41;35.29
64404;BME280;50726;54.912;-8.392;2022-12-31T13:54:37;98595.63;;;29.01;34.28
64404;BME280;50726;54.912;-8.392;2022-12-31T13:59:57;98588.81;;;29.45;35.75
64404;BME280;50726;54.912;-8.392;2022-12-31T14:02:39;98588.09;;;30.18;34.11
64404;BME280;50726;54.912;-8.392;2022-12-31T14:05:29;98578.56;;;30.22;34.79
64404;BME280;50726;54.912;-8.392;2022-12-31T14:07:58;98590.13;;;28.60;35.90
64404;BME280;50726;54.912;-8.392;2022-12-31T14:10:51;98603.09;;;28.36;34.87
64404;BME280;50726;54.912;-8.392;2022-12-31T14:16:21;98603.81;;;30.27;35.14
64404;BME280;50726;54.912;-8.392;2022-12-31T14:19:05;98611.19;;;31.30;34.50
64404;BME280;50726;54.912;-8.392;2022-12-31T14:27:08;98626.34;;;30.53;33.93
64404;BME280;50726;54.912;-8.392;2022-12-31T14:29:43;98589.16;;;31.27;34.35
64404;BME280;50726;54.912;-8.392;2022-12-31T14:35:23;98629.44;;;29.64;34.19
64404;BME280;50726;54.912;-8.392;2022-12-31T14:40:31;98597.94;;;30.44;33.73
64404;BME280;50726;54.912;-8.392;2022-12-31T14:43:31;98621.56;;;31.78;33.78
64404;BME280;50726;54.912;-8.392;2022-12-31T14:46:16;98625.28;;;29.41;34.81
64404;BME280;50726;54.912;-8.392;2022-12-31T14:51:48;98602.38;;;30.77;33.49
64404;BME280;50726;54.912;-8.392;2022-12-31T14:54:41;98599.75;;;30.57;33.70
64404;BME280;50726;54.912;-8.392;2022-12-31T14:57:21;98603.09;;;29.80;34.26
64404;BME280;50726;54.912;-8.392;2022-12-31T14:59:58;98600.13;;;30.22;34.04
64404;BME280;50726;54.912;-8.392;2022-12-31T15:02:26;98591.69;;;30.50;34.20
64404;BME280;50726;54.912;-8.392;2022-12-31T15:05:16;98591.47;;;30.59;33.29
64404;BME280;50726;54.912;-8.392;2022-12-31T15:10:19;98607.00;;;31.02;33.35
64404;BME280;50726;54.912;-8.392;2022-12-31T15:15:31;98606.75;;;32.06;33.53
64404;BME280;50726;54.912;-8.392;2022-12-31T15:23:54;98600.41;;;31.24;33.26
64404;BME280;50726;54.912;-8.392;2022-12-31T15:28:56;98603.38;;;32.48;31.36
64404;BME280;50726;54.912;-8.392;2022-12-31T15:31:24;98619.28;;;32.00;31.39
64404;BME280;50726;54.912;-8.392;2022-12-31T15:34:00;98620.19;;;33.11;31.62
64404;BME280;50726;54.912;-8.392;2022-12-31T15:36:34;98616.13;;;32.40;31.88
64404;BME280;50726;54.912;-8.392;2022-12-31T15:39:34;98626.13;;;32.89;30.29
64404;BME280;50726;54.912;-8.392;2022-12-31T15:42:00;98611.47;;;31.15;31.31
64404;BME280;50726;54.912;-8.392;2022-12-31T15:44:49;98622.41;;;31.53;31.63
64404;BME280;50726;54.912;-8.392;2022-12-31T15:47:28;98615.38;;;32.14;32.65
64404;BME280;50726;54.912;-8.392;2022-12-31T15:49:54;98628.19;;;31.82;32.62
64404;BME280;50726;54.912;-8.392;2022-12-31T15:52:31;98628.78;;;31.01;33.30
64404;BME280;50726;54.912;-8.392;2022-12-31T15:55:03;98621.31;;;31.60;33.93
64404;BME280;50726;54.912;-8.392;2022-12-31T15:57:31;98654.44;;;31.49;33.19
64404;BME280;50726;54.912;-8.392;2022-12-31T15:59:59;98652.88;;;30.57;32.51
64404;BME280;50726;54.912;-8.392;2022-12-31T16:02:26;98613.91;;;31.24;33.53
64404;BME280;50726;54.912;-8.392;2022-12-31T16:04:57;98626.53;;;31.30;31.98
64404;BME280;50726;54.912;-8.392;2022-12-31T16:07:25;98639.94;;;31.69;34.50
64404;BME280;50726;54.912;-8.392;2022-12-31T16:09:57;98630.78;;;32.14;34.45
64404;BME280;50726;54.912;-8.392;2022-12-31T16:12:28;98631.91;;;32.93;33.25
64404;BME280;50726;54.912;-8.392;2022-12-31T16:14:57;98622.63;;;31.51;33.43
64404;BME280;50726;54.912;-8.392;2022-12-31T16:17:30;98652.81;;;31.48;34.55
64404;BME280;50726;54.912;-8.392;2022-12-31T16:19:57;98631.06;;;29.79;33.32
64404;BME280;50726;54.912;-8.392;2022-12-31T16:24:59;98644.97;;;32.47;34.21
64404;BME280;50726;54.912;-8.392;2022-12-31T16:27:27;98636.28;;;32.07;33.99
64404;BME280;50726;54.912;-8.392;2022-12-31T16:30:05;98637.97;;;32.20;34.06
64404;BME280;50726;54.912;-8.392;2022-12-31T16:32:37;98640.84;;;32.44;32.55
64404;BME280;50726;54.912;-8.392;2022-12-31T16:37:44;98642.25;;;31.91;34.27
64404;BME280;50726;54.912;-8.392;2022-12-31T16:40:19;98640.66;;;32.76;33.22
64404;BME280;50726;54.912;-8.392;2022-12-31T16:42:46;98651.38;;;31.45;34.37
64404;BME280;50726;54.912;-8.392;2022-12-31T16:45:28;98632.50;;;32.46;33.69
64404;BME280;50726;54.912;-8.392;2022-12-31T16:48:21;98641.47;;;31.32;33.81
64404;BME280;50726;54.912;-8.392;2022-12-31T16:50:51;98647.69;;;32.47;33.42
64404;BME280;50726;54.912;-8.392;2022-12-31T16:53:20;98641.44;;;31.39;33.30
64404;BME280;50726;54.912;-8.392;2022-12-31T16:56:03;98659.56;;;30.93;31.97
64404;BME280;50726;54.912;-8.392;2022-12-31T16:58:34;98652.53;;;30.33;33.04
64404;BME280;50726;54.912;-8.392;2022-12-31T17:01:22;98653.28;;;30.99;32.40
64404;BME280;50726;54.912;-8.392;2022-12-31T17:03:57;98672.66;;;30.44;33.65
64404;BME280;50726;54.912;-8.392;2022-12-31T17:06:24;98674.00;;;30.73;34.64
64404;BME280;50726;54.912;-8.392;2022-12-31T17:11:54;98665.84;;;29.33;35.63
64404;BME280;50726;54.912;-8.392;2022-12-31T17:14:26;98661.75;;;28.75;34.62
64404;BME280;50726;54.912;-8.392;2022-12-31T17:17:02;98699.47;;;29.64;36.13
64404;BME280;50726;54.912;-8.392;2022-12-31T17:19:34;98690.63;;;28.46;34.38
64404;BME280;50726;54.912;-8.392;2022-12-31T17:22:03;98664.06;;;28.29;36.11
64404;BME280;50726;54.912;-8.392;2022-12-31T17:24:31;98656.38;;;28.68;35.38
64404;BME280;50726;54.912;-8.392;2022-12-31T17:27:05;98655.97;;;30.60;34.49
64404;BME280;50726;54.912;-8.392;2022-12-31T17:29:33;98658.44;;;29.76;36.35
64404;BME280;50726;54.912;-8.392;2022-12-31T17:35:12;98657.75;;;30.27;35.51
64404;BME280;50726;54.912;-8.392;2022-12-31T17:37:25;98670.25;;;29.68;34.43
64404;BME280;50726;54.912;-8.392;2022-12-31T17:39:53;98664.81;;;29.27;33.33
64404;BME280;50726;54.912;-8.392;2022-12-31T17:42:38;98657.38;;;29.36;34.10
64404;BME280;50726;54.912;-8.392;2022-12-31T17:45:07;98664.25;;;29.79;33.06
64404;BME280;50726;54.912;-8.392;2022-12-31T17:47:39;98669.81;;;29.98;33.05
64404;BME280;50726;54.912;-8.392;2022-12-31T17:50:23;98655.91;;;30.08;32.52
64404;BME280;50726;54.912;-8.392;2022-12-31T17:52:52;98656.75;;;30.74;31.56
64404;BME280;50726;54.912;-8.392;2022-12-31T17:55:20;98656.19;;;26.53;33.78
64404;BME280;50726;54.912;-8.392;2022-12-31T17:57:55;98657.94;;;26.00;35.23
64404;BME280;50726;54.912;-8.392;2022-12-31T18:00:25;98639.22;;;25.39;36.06
64404;BME280;50726;54.912;-8.392;2022-12-31T18:02:55;98660.59;;;24.92;37.34
64404;BME280;50726;54.912;-8.392;2022-12-31T18:05:21;98668.63;;;26.24;36.38